createdAt,value
2019-05-01T00:02:21.021Z,101340.28
2019-05-01T00:05:10.917Z,101354.77
2019-05-01T00:07:41.935Z,101346.38
2019-05-01T00:10:12.857Z,101341.12
2019-05-01T00:12:43.624Z,101346.61
2019-05-01T00:15:14.666Z,101343.24
2019-05-01T00:17:45.730Z,101339.67
2019-05-01T00:20:16.783Z,101333.38
2019-05-01T00:22:47.813Z,101332.96
2019-05-01T00:25:18.681Z,101334.09
2019-05-01T00:27:49.885Z,101318.55
2019-05-01T00:30:29.657Z,101322.12
2019-05-01T00:32:58.393Z,101320.17
2019-05-01T00:35:29.330Z,101320.78
2019-05-01T00:38:00.475Z,101318.19
2019-05-01T00:40:31.422Z,101319.02
2019-05-01T00:43:02.718Z,101310.66
2019-05-01T00:45:33.732Z,101317.03
2019-05-01T00:48:04.997Z,101316.31
2019-05-01T00:50:36.007Z,101315.85
2019-05-01T00:56:03.236Z,101301.31
2019-05-01T00:58:56.216Z,101302.08
2019-05-01T01:01:56.211Z,101300.02
2019-05-01T01:04:27.461Z,101303.08
2019-05-01T01:06:58.639Z,101296.06
2019-05-01T01:09:30.174Z,101295.72
2019-05-01T01:12:01.061Z,101290.93
2019-05-01T01:14:31.947Z,101293.36
2019-05-01T01:17:02.782Z,101293.72
2019-05-01T01:19:33.572Z,101294.00
2019-05-01T01:22:04.556Z,101291.97
2019-05-01T01:24:35.552Z,101294.96
2019-05-01T01:27:06.491Z,101294.11
2019-05-01T01:29:37.408Z,101286.00
2019-05-01T01:32:08.502Z,101285.65
2019-05-01T01:34:39.447Z,101279.86
2019-05-01T01:37:10.435Z,101284.63
2019-05-01T01:39:41.534Z,101281.17
2019-05-01T01:42:12.439Z,101273.24
2019-05-01T01:44:55.942Z,101276.48
2019-05-01T01:47:27.217Z,101278.95
2019-05-01T01:49:58.389Z,101280.75
2019-05-01T01:52:30.055Z,101281.53
2019-05-01T01:55:01.537Z,101289.11
2019-05-01T01:57:32.326Z,101286.01
2019-05-01T02:00:05.134Z,101288.27
2019-05-01T02:02:41.244Z,101285.55
2019-05-01T02:05:17.642Z,101280.79
2019-05-01T02:07:48.639Z,101283.64
2019-05-01T02:10:19.683Z,101276.66
2019-05-01T02:12:50.788Z,101278.06
2019-05-01T02:15:21.668Z,101277.54
2019-05-01T02:17:52.670Z,101276.73
2019-05-01T02:20:23.635Z,101272.28
2019-05-01T02:22:54.507Z,101268.33
2019-05-01T02:25:25.518Z,101262.58
2019-05-01T02:28:33.673Z,101259.45
2019-05-01T02:31:27.083Z,101260.82
2019-05-01T02:33:49.303Z,101256.02
2019-05-01T02:36:20.286Z,101254.75
2019-05-01T02:38:51.206Z,101259.19
2019-05-01T02:41:22.182Z,101257.56
2019-05-01T02:43:54.959Z,101254.55
2019-05-01T02:46:25.980Z,101256.30
2019-05-01T02:49:06.655Z,101251.17
2019-05-01T02:51:37.892Z,101251.95
2019-05-01T02:54:09.121Z,101251.63
2019-05-01T02:56:46.335Z,101252.19
2019-05-01T02:59:17.372Z,101249.97
2019-05-01T03:01:48.459Z,101245.95
2019-05-01T03:04:19.280Z,101244.74
2019-05-01T03:06:50.242Z,101254.55
2019-05-01T03:09:21.198Z,101249.22
2019-05-01T03:11:52.222Z,101245.17
2019-05-01T03:14:23.354Z,101245.92
2019-05-01T03:16:54.242Z,101246.05
2019-05-01T03:19:42.834Z,101243.21
2019-05-01T03:22:37.231Z,101245.83
2019-05-01T03:25:08.580Z,101242.46
2019-05-01T03:27:39.518Z,101234.06
2019-05-01T03:30:10.632Z,101240.77
2019-05-01T03:32:41.723Z,101243.04
2019-05-01T03:35:12.592Z,101242.91
2019-05-01T03:37:43.512Z,101242.61
2019-05-01T03:40:16.502Z,101239.02
2019-05-01T03:42:47.382Z,101243.95
2019-05-01T03:45:18.217Z,101239.75
2019-05-01T03:47:49.155Z,101243.27
2019-05-01T03:50:20.208Z,101241.61
2019-05-01T03:52:51.318Z,101236.06
2019-05-01T03:55:22.271Z,101231.03
2019-05-01T03:57:53.223Z,101232.27
2019-05-01T04:00:35.453Z,101233.67
2019-05-01T04:03:26.650Z,101235.05
2019-05-01T04:05:57.852Z,101239.26
2019-05-01T04:08:29.089Z,101244.03
2019-05-01T04:11:00.273Z,101237.86
2019-05-01T04:13:31.283Z,101247.13
2019-05-01T04:16:02.182Z,101244.97
2019-05-01T04:18:33.396Z,101241.64
2019-05-01T04:21:04.751Z,101245.76
2019-05-01T04:23:36.164Z,101240.77
2019-05-01T04:26:08.593Z,101246.67
2019-05-01T04:28:58.482Z,101241.61
2019-05-01T04:31:40.399Z,101243.54
2019-05-01T04:34:27.241Z,101244.16
2019-05-01T04:37:00.119Z,101245.69
2019-05-01T04:39:31.130Z,101252.64
2019-05-01T04:42:02.123Z,101246.70
2019-05-01T04:44:33.063Z,101249.56
2019-05-01T04:47:03.915Z,101259.79
2019-05-01T04:49:35.451Z,101252.95
2019-05-01T04:52:06.732Z,101260.82
2019-05-01T04:54:41.072Z,101257.61
2019-05-01T04:57:12.035Z,101263.72
2019-05-01T04:59:42.950Z,101264.11
2019-05-01T05:02:16.303Z,101264.88
2019-05-01T05:04:47.180Z,101270.17
2019-05-01T05:07:18.273Z,101260.23
2019-05-01T05:09:49.273Z,101264.56
2019-05-01T05:12:29.576Z,101269.15
2019-05-01T05:15:06.512Z,101268.13
2019-05-01T05:17:37.763Z,101266.22
2019-05-01T05:20:09.715Z,101263.47
2019-05-01T05:22:40.710Z,101279.34
2019-05-01T05:25:11.546Z,101271.55
2019-05-01T05:27:42.545Z,101270.24
2019-05-01T05:30:13.670Z,101273.24
2019-05-01T05:32:44.823Z,101283.36
2019-05-01T05:35:16.346Z,101273.66
2019-05-01T05:38:09.413Z,101278.07
2019-05-01T05:40:44.585Z,101279.34
2019-05-01T05:43:15.566Z,101283.16
2019-05-01T05:45:46.517Z,101280.65
2019-05-01T05:48:17.433Z,101270.77
2019-05-01T05:51:19.274Z,101270.10
2019-05-01T05:53:52.427Z,101271.86
2019-05-01T05:56:27.313Z,101274.69
2019-05-01T05:59:03.587Z,101270.03
2019-05-01T06:01:52.250Z,101277.89
2019-05-01T06:04:37.500Z,101279.88
2019-05-01T06:07:13.733Z,101273.59
2019-05-01T06:09:51.324Z,101276.55
2019-05-01T06:12:32.208Z,101277.55
2019-05-01T06:15:14.393Z,101274.22
2019-05-01T06:18:02.451Z,101272.66
2019-05-01T06:20:57.068Z,101269.83
2019-05-01T06:23:52.690Z,101275.84
2019-05-01T06:26:32.119Z,101268.07
2019-05-01T06:29:02.889Z,101266.69
2019-05-01T06:31:35.267Z,101270.49
2019-05-01T06:34:06.287Z,101267.63
2019-05-01T06:36:37.333Z,101267.63
2019-05-01T06:39:11.867Z,101267.00
2019-05-01T06:41:45.052Z,101269.50
2019-05-01T06:44:33.412Z,101272.48
2019-05-01T06:47:11.729Z,101268.66
2019-05-01T06:49:56.025Z,101272.11
2019-05-01T06:52:29.442Z,101274.41
2019-05-01T06:55:00.274Z,101284.52
2019-05-01T06:57:31.333Z,101279.80
2019-05-01T07:00:03.136Z,101278.09
2019-05-01T07:02:35.641Z,101286.25
2019-05-01T07:05:13.846Z,101282.09
2019-05-01T07:07:43.259Z,101284.59
2019-05-01T07:10:14.890Z,101289.75
2019-05-01T07:12:46.102Z,101284.41
2019-05-01T07:15:17.677Z,101280.45
2019-05-01T07:17:49.012Z,101281.14
2019-05-01T07:20:41.956Z,101277.71
2019-05-01T07:23:17.415Z,101276.63
2019-05-01T07:25:46.598Z,101280.37
2019-05-01T07:28:17.716Z,101276.52
2019-05-01T07:31:01.208Z,101275.00
2019-05-01T07:33:32.204Z,101278.34
2019-05-01T07:36:06.942Z,101278.63
2019-05-01T07:38:38.214Z,101278.63
2019-05-01T07:41:08.468Z,101270.42
2019-05-01T07:44:09.333Z,101276.78
2019-05-01T07:46:54.321Z,101271.41
2019-05-01T07:49:54.671Z,101270.08
2019-05-01T07:52:26.064Z,101271.27
2019-05-01T07:54:58.007Z,101273.33
2019-05-01T07:57:29.476Z,101278.42
2019-05-01T08:00:03.231Z,101274.94
2019-05-01T08:02:33.228Z,101277.62
2019-05-01T08:05:10.079Z,101282.15
2019-05-01T08:07:38.551Z,101277.51
2019-05-01T08:10:09.520Z,101271.30
2019-05-01T08:12:40.514Z,101274.94
2019-05-01T08:15:11.681Z,101278.79
2019-05-01T08:17:53.100Z,101271.03
2019-05-01T08:20:28.276Z,101269.75
2019-05-01T08:22:59.206Z,101272.11
2019-05-01T08:25:33.282Z,101271.89
2019-05-01T08:28:13.876Z,101277.27
2019-05-01T08:31:02.255Z,101268.61
2019-05-01T08:33:51.659Z,101273.98
2019-05-01T08:36:24.434Z,101270.99
2019-05-01T08:38:55.290Z,101269.53
2019-05-01T08:41:27.171Z,101271.59
2019-05-01T08:43:58.908Z,101270.93
2019-05-01T08:46:52.212Z,101265.93
2019-05-01T08:49:30.183Z,101264.63
2019-05-01T08:52:04.743Z,101267.05
2019-05-01T08:54:34.840Z,101270.35
2019-05-01T08:57:07.971Z,101266.76
2019-05-01T08:59:38.990Z,101267.34
2019-05-01T09:02:10.214Z,101268.13
2019-05-01T09:04:41.342Z,101268.52
2019-05-01T09:07:14.627Z,101263.80
2019-05-01T09:09:47.768Z,101263.28
2019-05-01T09:12:23.669Z,101265.91
2019-05-01T09:14:54.744Z,101264.84
2019-05-01T09:17:27.199Z,101265.70
2019-05-01T09:19:58.268Z,101260.23
2019-05-01T09:22:29.308Z,101265.00
2019-05-01T09:25:01.903Z,101261.84
2019-05-01T09:27:44.017Z,101262.92
2019-05-01T09:30:26.765Z,101262.27
2019-05-01T09:32:55.625Z,101253.23
2019-05-01T09:35:29.199Z,101255.30
2019-05-01T09:38:00.167Z,101257.97
2019-05-01T09:40:31.154Z,101255.61
2019-05-01T09:43:08.209Z,101259.78
2019-05-01T09:45:41.126Z,101258.83
2019-05-01T09:48:26.443Z,101254.64
2019-05-01T09:51:19.122Z,101254.73
2019-05-01T09:53:59.816Z,101259.53
2019-05-01T09:56:34.771Z,101251.75
2019-05-01T09:59:07.165Z,101249.00
2019-05-01T10:01:38.278Z,101249.02
2019-05-01T10:04:19.288Z,101245.97
2019-05-01T10:06:52.425Z,101235.20
2019-05-01T10:09:26.789Z,101232.64
2019-05-01T10:12:00.571Z,101234.64
2019-05-01T10:14:57.259Z,101230.27
2019-05-01T10:17:30.681Z,101227.34
2019-05-01T10:20:07.483Z,101225.08
2019-05-01T10:22:39.830Z,101221.17
2019-05-01T10:25:13.577Z,101217.20
2019-05-01T10:27:49.613Z,101215.27
2019-05-01T10:30:50.867Z,101220.67
2019-05-01T10:33:28.956Z,101215.29
2019-05-01T10:36:18.958Z,101216.45
2019-05-01T10:38:51.405Z,101208.98
2019-05-01T10:41:23.825Z,101212.98
2019-05-01T10:43:55.239Z,101204.16
2019-05-01T10:46:26.116Z,101209.33
2019-05-01T10:48:57.524Z,101200.84
2019-05-01T10:51:28.705Z,101190.89
2019-05-01T10:53:59.746Z,101198.45
2019-05-01T10:56:30.738Z,101200.06
2019-05-01T10:59:01.912Z,101196.69
2019-05-01T11:01:41.527Z,101192.94
2019-05-01T11:04:12.509Z,101198.12
2019-05-01T11:06:44.915Z,101195.38
2019-05-01T11:09:15.687Z,101188.26
2019-05-01T11:11:46.668Z,101186.16
2019-05-01T11:14:17.648Z,101184.16
2019-05-01T11:16:48.699Z,101185.97
2019-05-01T11:19:19.648Z,101183.98
2019-05-01T11:21:52.317Z,101174.61
2019-05-01T11:24:23.701Z,101177.68
2019-05-01T11:26:55.108Z,101168.07
2019-05-01T11:29:26.210Z,101170.47
2019-05-01T11:32:34.291Z,101157.11
2019-05-01T11:35:34.834Z,101165.25
2019-05-01T11:38:17.459Z,101145.79
2019-05-01T11:40:54.264Z,101156.84
2019-05-01T11:43:31.662Z,101146.44
2019-05-01T11:46:02.693Z,101145.89
2019-05-01T11:48:33.650Z,101140.84
2019-05-01T11:51:04.718Z,101129.91
2019-05-01T11:53:35.660Z,101125.91
2019-05-01T11:56:07.400Z,101130.61
2019-05-01T11:58:38.281Z,101128.94
2019-05-01T12:01:11.034Z,101127.98
2019-05-01T12:03:42.083Z,101121.72
2019-05-01T12:06:22.693Z,101113.92
2019-05-01T12:08:46.180Z,101107.91
2019-05-01T12:11:18.903Z,101109.92
2019-05-01T12:13:52.383Z,101105.05
2019-05-01T12:16:43.690Z,101109.31
2019-05-01T12:19:14.848Z,101103.85
2019-05-01T12:21:45.932Z,101101.69
2019-05-01T12:24:18.143Z,101099.28
2019-05-01T12:26:49.212Z,101093.45
2019-05-01T12:29:20.083Z,101092.00
2019-05-01T12:31:51.141Z,101090.84
2019-05-01T12:34:22.156Z,101091.20
2019-05-01T12:37:12.035Z,101082.29
2019-05-01T12:39:45.844Z,101079.38
2019-05-01T12:42:18.529Z,101073.56
2019-05-01T12:44:51.235Z,101071.81
2019-05-01T12:47:32.355Z,101069.10
2019-05-01T12:50:06.576Z,101065.80
2019-05-01T12:53:02.233Z,101056.30
2019-05-01T12:56:04.165Z,101048.92
2019-05-01T12:58:39.900Z,101045.95
2019-05-01T13:01:12.514Z,101048.34
2019-05-01T13:03:44.799Z,101044.19
2019-05-01T13:06:18.798Z,101043.01
2019-05-01T13:08:52.311Z,101032.59
2019-05-01T13:11:23.470Z,101028.84
2019-05-01T13:13:54.414Z,101028.31
2019-05-01T13:16:26.979Z,101028.22
2019-05-01T13:18:58.514Z,101017.22
2019-05-01T13:21:29.738Z,101018.14
2019-05-01T13:24:00.589Z,101016.59
2019-05-01T13:26:46.002Z,101014.53
2019-05-01T13:29:45.178Z,101006.64
2019-05-01T13:32:33.466Z,101003.70
2019-05-01T13:35:04.987Z,101008.09
2019-05-01T13:37:36.083Z,101003.23
2019-05-01T13:40:07.741Z,100991.47
2019-05-01T13:42:38.541Z,100992.09
2019-05-01T13:45:12.812Z,100986.03
2019-05-01T13:47:49.887Z,100981.16
2019-05-01T13:50:21.096Z,100976.09
2019-05-01T13:52:52.107Z,100968.98
2019-05-01T13:55:23.961Z,100960.59
2019-05-01T13:57:57.392Z,100967.39
2019-05-01T14:00:32.961Z,100957.34
2019-05-01T14:03:04.013Z,100956.27
2019-05-01T14:05:34.950Z,100958.83
2019-05-01T14:08:07.588Z,100950.23
2019-05-01T14:10:38.713Z,100941.91
2019-05-01T14:13:23.573Z,100946.19
2019-05-01T14:16:00.376Z,100934.26
2019-05-01T14:18:34.163Z,100928.64
2019-05-01T14:21:37.525Z,100927.11
2019-05-01T14:24:18.598Z,100920.86
2019-05-01T14:26:49.512Z,100921.49
2019-05-01T14:29:20.491Z,100916.70
2019-05-01T14:31:51.468Z,100913.23
2019-05-01T14:34:22.406Z,100912.06
2019-05-01T14:36:53.358Z,100913.39
2019-05-01T14:39:24.256Z,100910.95
2019-05-01T14:41:55.394Z,100903.84
2019-05-01T14:44:36.315Z,100902.66
2019-05-01T14:47:00.392Z,100901.29
2019-05-01T14:49:34.443Z,100904.60
2019-05-01T14:52:06.293Z,100891.06
2019-05-01T14:54:37.225Z,100888.62
2019-05-01T14:57:08.197Z,100891.06
2019-05-01T14:59:39.194Z,100886.56
2019-05-01T15:02:10.070Z,100887.97
2019-05-01T15:04:41.310Z,100882.38
2019-05-01T15:07:12.137Z,100884.84
2019-05-01T15:09:43.152Z,100880.86
2019-05-01T15:12:14.343Z,100875.81
2019-05-01T15:14:58.138Z,100880.42
2019-05-01T15:17:40.540Z,100872.43
2019-05-01T15:20:13.128Z,100880.16
2019-05-01T15:22:44.262Z,100873.87
2019-05-01T15:25:15.353Z,100876.53
2019-05-01T15:27:46.494Z,100874.25
2019-05-01T15:30:19.659Z,100869.50
2019-05-01T15:32:50.462Z,100872.97
2019-05-01T15:35:21.513Z,100866.39
2019-05-01T15:37:56.762Z,100866.54
2019-05-01T15:40:33.860Z,100859.94
2019-05-01T15:43:39.186Z,100859.16
2019-05-01T15:46:10.140Z,100857.70
2019-05-01T15:48:41.121Z,100857.27
2019-05-01T15:51:12.080Z,100852.80
2019-05-01T15:53:43.126Z,100852.94
2019-05-01T15:56:14.181Z,100851.34
2019-05-01T15:58:45.105Z,100844.64
2019-05-01T16:01:16.054Z,100852.88
2019-05-01T16:03:47.088Z,100848.70
2019-05-01T16:06:18.049Z,100842.06
2019-05-01T16:08:49.256Z,100839.34
2019-05-01T16:11:42.126Z,100841.34
2019-05-01T16:14:13.351Z,100841.10
2019-05-01T16:16:44.274Z,100845.11
2019-05-01T16:19:15.239Z,100834.28
2019-05-01T16:21:46.330Z,100835.11
2019-05-01T16:24:19.028Z,100835.17
2019-05-01T16:26:51.152Z,100830.75
2019-05-01T16:29:25.417Z,100834.84
2019-05-01T16:31:56.356Z,100828.27
2019-05-01T16:34:28.862Z,100826.81
2019-05-01T16:37:02.924Z,100819.16
2019-05-01T16:39:52.822Z,100822.10
2019-05-01T16:42:37.958Z,100814.77
2019-05-01T16:45:09.638Z,100811.54
2019-05-01T16:48:14.858Z,100805.75
2019-05-01T16:50:53.327Z,100808.20
2019-05-01T16:53:27.103Z,100799.71
2019-05-01T16:56:01.051Z,100807.79
2019-05-01T16:58:35.080Z,100802.30
2019-05-01T17:01:10.932Z,100797.91
2019-05-01T17:04:07.156Z,100797.22
2019-05-01T17:07:00.062Z,100789.92
2019-05-01T17:09:52.974Z,100791.60
2019-05-01T17:12:30.542Z,100788.43
2019-05-01T17:15:02.740Z,100789.14
2019-05-01T17:17:36.972Z,100793.05
2019-05-01T17:20:10.033Z,100783.00
2019-05-01T17:22:41.427Z,100782.59
2019-05-01T17:25:12.856Z,100786.04
2019-05-01T17:27:43.919Z,100781.80
2019-05-01T17:30:20.330Z,100785.47
2019-05-01T17:32:51.373Z,100784.59
2019-05-01T17:35:22.393Z,100788.10
2019-05-01T17:37:53.330Z,100781.59
2019-05-01T17:40:24.343Z,100785.64
2019-05-01T17:42:55.550Z,100776.23
2019-05-01T17:45:29.985Z,100781.59
2019-05-01T17:47:59.651Z,100785.55
2019-05-01T17:50:30.881Z,100788.17
2019-05-01T17:53:01.898Z,100784.69
2019-05-01T17:55:32.703Z,100784.98
2019-05-01T17:58:03.753Z,100795.85
2019-05-01T18:00:54.146Z,100795.07
2019-05-01T18:03:49.819Z,100787.25
2019-05-01T18:06:24.720Z,100790.55
2019-05-01T18:09:02.858Z,100789.20
2019-05-01T18:11:28.503Z,100797.11
2019-05-01T18:13:59.388Z,100784.95
2019-05-01T18:16:31.378Z,100794.42
2019-05-01T18:19:02.579Z,100795.00
2019-05-01T18:21:33.603Z,100787.57
2019-05-01T18:24:32.584Z,100793.26
2019-05-01T18:27:22.519Z,100795.67
2019-05-01T18:29:55.947Z,100789.97
2019-05-01T18:32:36.353Z,100793.55
2019-05-01T18:35:08.931Z,100791.02
2019-05-01T18:38:11.652Z,100788.85
2019-05-01T18:40:46.273Z,100795.70
2019-05-01T18:43:17.398Z,100789.23
2019-05-01T18:45:51.135Z,100786.72
2019-05-01T18:48:22.139Z,100788.27
2019-05-01T18:50:55.032Z,100783.45
2019-05-01T18:53:26.031Z,100782.09
2019-05-01T18:56:01.477Z,100786.44
2019-05-01T18:58:29.711Z,100786.16
2019-05-01T19:01:03.940Z,100783.36
2019-05-01T19:03:37.058Z,100785.08
2019-05-01T19:06:09.571Z,100782.55
2019-05-01T19:08:40.792Z,100783.52
2019-05-01T19:11:13.169Z,100780.42
2019-05-01T19:13:44.718Z,100780.78
2019-05-01T19:16:17.133Z,100791.20
2019-05-01T19:18:48.177Z,100787.55
2019-05-01T19:21:24.130Z,100789.45
2019-05-01T19:24:01.074Z,100791.41
2019-05-01T19:26:32.962Z,100786.75
2019-05-01T19:29:17.165Z,100790.49
2019-05-01T19:31:48.220Z,100785.56
2019-05-01T19:34:19.319Z,100788.10
2019-05-01T19:36:51.625Z,100783.36
2019-05-01T19:39:24.679Z,100783.52
2019-05-01T19:42:00.272Z,100780.89
2019-05-01T19:44:34.146Z,100781.72
2019-05-01T19:47:08.695Z,100785.09
2019-05-01T19:49:39.787Z,100781.22
2019-05-01T19:52:16.000Z,100780.41
2019-05-01T19:54:49.211Z,100779.80
2019-05-01T19:57:22.989Z,100774.92
2019-05-01T19:59:54.099Z,100777.75
2019-05-01T20:02:28.040Z,100774.70
2019-05-01T20:04:59.163Z,100776.70
2019-05-01T20:07:30.202Z,100774.16
2019-05-01T20:10:05.825Z,100775.08
2019-05-01T20:12:36.891Z,100776.42
2019-05-01T20:15:08.086Z,100775.80
2019-05-01T20:17:39.074Z,100772.48
2019-05-01T20:20:09.945Z,100768.38
2019-05-01T20:22:48.099Z,100766.88
2019-05-01T20:25:23.957Z,100769.05
2019-05-01T20:27:57.268Z,100768.84
2019-05-01T20:30:28.783Z,100767.88
2019-05-01T20:33:03.745Z,100764.89
2019-05-01T20:35:35.453Z,100764.34
2019-05-01T20:38:06.558Z,100769.88
2019-05-01T20:40:37.630Z,100760.78
2019-05-01T20:43:08.658Z,100762.89
2019-05-01T20:45:39.689Z,100759.09
2019-05-01T20:48:18.569Z,100760.28
2019-05-01T20:51:03.271Z,100760.52
2019-05-01T20:53:32.602Z,100761.71
2019-05-01T20:56:24.017Z,100752.19
2019-05-01T20:59:03.166Z,100759.50
2019-05-01T21:01:33.987Z,100750.92
2019-05-01T21:04:19.053Z,100751.80
2019-05-01T21:07:20.125Z,100753.86
2019-05-01T21:09:57.729Z,100753.62
2019-05-01T21:12:26.424Z,100761.59
2019-05-01T21:15:29.359Z,100753.82
2019-05-01T21:17:56.757Z,100756.84
2019-05-01T21:20:28.801Z,100759.13
2019-05-01T21:23:05.696Z,100763.22
2019-05-01T21:25:35.026Z,100759.70
2019-05-01T21:28:08.871Z,100754.60
2019-05-01T21:30:43.944Z,100757.58
2019-05-01T21:33:16.688Z,100762.31
2019-05-01T21:35:53.350Z,100763.69
2019-05-01T21:38:37.327Z,100770.70
2019-05-01T21:41:11.322Z,100764.03
2019-05-01T21:43:43.868Z,100762.91
2019-05-01T21:46:15.041Z,100760.59
2019-05-01T21:48:45.989Z,100761.22
2019-05-01T21:51:17.139Z,100756.78
2019-05-01T21:53:55.527Z,100753.41
2019-05-01T21:56:27.866Z,100757.91
2019-05-01T21:59:06.704Z,100758.13
2019-05-01T22:01:34.707Z,100760.81
2019-05-01T22:04:06.755Z,100755.53
2019-05-01T22:06:37.785Z,100758.75
2019-05-01T22:09:15.187Z,100756.22
2019-05-01T22:11:46.808Z,100762.13
2019-05-01T22:14:37.005Z,100769.47
2019-05-01T22:17:14.409Z,100762.40
2019-05-01T22:19:45.496Z,100761.02
2019-05-01T22:22:24.348Z,100762.42
2019-05-01T22:25:18.797Z,100760.41
2019-05-01T22:28:18.722Z,100757.88
2019-05-01T22:30:55.540Z,100758.41
2019-05-01T22:33:27.216Z,100758.30
2019-05-01T22:35:58.194Z,100757.34
2019-05-01T22:38:29.180Z,100753.72
2019-05-01T22:41:13.289Z,100747.83
2019-05-01T22:43:44.359Z,100752.32
2019-05-01T22:46:28.128Z,100756.09
2019-05-01T22:48:59.154Z,100750.16
2019-05-01T22:51:30.121Z,100750.52
2019-05-01T22:54:01.030Z,100746.08
2019-05-01T22:56:32.149Z,100744.79
2019-05-01T22:59:03.148Z,100746.75
2019-05-01T23:01:34.250Z,100743.24
2019-05-01T23:04:07.635Z,100742.10
2019-05-01T23:06:41.854Z,100746.74
2019-05-01T23:09:11.599Z,100742.03
2019-05-01T23:11:45.529Z,100744.56
2019-05-01T23:14:17.462Z,100741.70
2019-05-01T23:16:58.584Z,100740.83
2019-05-01T23:19:29.649Z,100739.06
2019-05-01T23:22:00.727Z,100739.20
2019-05-01T23:24:31.628Z,100741.66
2019-05-01T23:27:02.759Z,100732.52
2019-05-01T23:29:33.799Z,100736.60
2019-05-01T23:32:06.079Z,100733.86
2019-05-01T23:34:37.476Z,100735.81
2019-05-01T23:37:08.434Z,100734.63
2019-05-01T23:39:40.648Z,100738.30
2019-05-01T23:42:12.087Z,100731.72
2019-05-01T23:44:44.217Z,100732.02
2019-05-01T23:47:15.624Z,100725.37
2019-05-01T23:49:47.702Z,100727.58
2019-05-01T23:52:19.466Z,100728.19
2019-05-01T23:54:50.504Z,100722.96
2019-05-01T23:57:21.414Z,100722.65
2019-05-01T23:59:52.516Z,100721.77
